Pinegrove, Alabama
Current Conditions -  °F | °C
As of 2:53 PM on Thursday 23 Oct 2014 (Local Time) from KBFM Reporting Station
Clear Clear  
Wind Chill: 73°   Ceiling: Unl
Heat Index: 73°   Visibility: 10mi
Dew Point: 46°   Wind: 5mph
Humidity: 38%   Direction: 80°E
Pressure: 30.05"   Gusts: NA
Location:  30.8772°N, 87.7146°W
Report Text: KBFM 231953Z 08004KT 10SM CLR 23/08 A3005 RMK AO2 SLP174 T02280078
Loading
Personal Weather Stations






























Interactive Weather Map
Tropical Storm Tracking
New forecast layout! Learn more

10-Day Weather Forecast

Advertisements
Track Severe Weather on mobile